createdAt,value
2019-01-15T00:00:33.127Z,1.60
2019-01-15T00:05:47.293Z,1.77
2019-01-15T00:20:49.436Z,1.50
2019-01-15T00:44:57.198Z,2.17
2019-01-15T01:27:21.051Z,1.30
2019-01-15T01:41:46.589Z,1.30
2019-01-15T01:55:35.725Z,1.20
2019-01-15T02:29:14.698Z,1.33
2019-01-15T02:33:33.151Z,1.10
2019-01-15T02:47:49.334Z,1.25
2019-01-15T02:51:54.989Z,1.40
2019-01-15T02:56:00.673Z,1.10
2019-01-15T03:00:17.359Z,1.02
2019-01-15T03:04:23.043Z,1.17
2019-01-15T03:08:28.732Z,1.10
2019-01-15T03:12:35.380Z,1.10
2019-01-15T03:16:41.097Z,1.60
2019-01-15T03:20:46.804Z,1.20
2019-01-15T03:24:52.496Z,1.63
2019-01-15T03:28:58.165Z,1.20
2019-01-15T03:33:03.895Z,1.60
2019-01-15T03:37:09.565Z,1.37
2019-01-15T03:41:15.326Z,1.10
2019-01-15T03:45:21.075Z,1.23
2019-01-15T03:49:26.761Z,1.10
2019-01-15T03:53:32.493Z,1.13
2019-01-15T03:57:38.458Z,1.10
2019-01-15T04:01:44.139Z,1.20
2019-01-15T04:05:49.832Z,1.20
2019-01-15T04:09:55.558Z,1.13
2019-01-15T04:14:02.581Z,1.20
2019-01-15T04:18:08.267Z,1.30
2019-01-15T04:22:13.993Z,1.20
2019-01-15T04:26:19.735Z,1.27
2019-01-15T04:30:25.632Z,1.40
2019-01-15T04:34:31.334Z,1.10
2019-01-15T04:38:37.006Z,1.27
2019-01-15T04:42:42.696Z,1.70
2019-01-15T04:46:48.379Z,1.37
2019-01-15T04:50:54.042Z,1.60
2019-01-15T04:54:59.728Z,1.70
2019-01-15T04:59:05.551Z,1.37
2019-01-15T05:03:11.608Z,1.60
2019-01-15T05:07:17.294Z,1.40
2019-01-15T05:11:22.959Z,1.40
2019-01-15T05:15:28.661Z,1.57
2019-01-15T05:19:34.406Z,2.57
2019-01-15T05:23:40.111Z,1.37
2019-01-15T05:27:45.895Z,1.90
2019-01-15T05:31:51.581Z,1.63
2019-01-15T05:35:57.285Z,1.53
2019-01-15T05:40:02.963Z,1.57
2019-01-15T05:44:10.170Z,2.13
2019-01-15T05:48:17.549Z,1.70
2019-01-15T05:52:23.233Z,1.27
2019-01-15T05:56:28.939Z,1.60
2019-01-15T06:00:34.666Z,2.85
2019-01-15T06:04:40.338Z,1.93
2019-01-15T06:08:46.001Z,2.80
2019-01-15T06:12:51.687Z,1.90
2019-01-15T06:16:57.372Z,2.60
2019-01-15T06:21:03.117Z,1.83
2019-01-15T06:25:10.808Z,1.97
2019-01-15T06:29:16.660Z,2.00
2019-01-15T06:33:22.341Z,1.97
2019-01-15T06:37:28.027Z,1.80
2019-01-15T06:41:33.786Z,2.30
2019-01-15T06:45:39.460Z,2.00
2019-01-15T06:49:45.216Z,1.73
2019-01-15T06:53:50.902Z,2.00
2019-01-15T06:57:56.586Z,1.80
2019-01-15T07:02:02.274Z,1.93
2019-01-15T07:06:07.954Z,2.20
2019-01-15T07:10:24.342Z,2.10
2019-01-15T07:14:30.035Z,1.90
2019-01-15T07:18:35.719Z,2.13
2019-01-15T07:22:41.394Z,4.87
2019-01-15T07:26:47.151Z,2.10
2019-01-15T07:30:52.905Z,1.77
2019-01-15T07:34:58.591Z,1.87
2019-01-15T07:39:07.176Z,2.03
2019-01-15T07:43:12.848Z,2.10
2019-01-15T07:47:18.615Z,2.07
2019-01-15T07:51:24.299Z,1.90
2019-01-15T07:55:29.985Z,2.20
2019-01-15T07:59:35.670Z,2.10
2019-01-15T08:03:41.330Z,2.10
2019-01-15T08:07:47.184Z,2.20
2019-01-15T08:11:52.884Z,2.25
2019-01-15T08:15:58.572Z,2.13
2019-01-15T08:20:06.309Z,2.27
2019-01-15T08:24:11.990Z,1.87
2019-01-15T08:28:17.677Z,2.30
2019-01-15T08:36:34.484Z,2.27
2019-01-15T08:40:40.145Z,2.37
2019-01-15T08:44:45.997Z,2.33
2019-01-15T08:48:51.681Z,2.10
2019-01-15T08:52:57.489Z,2.43
2019-01-15T08:57:03.169Z,2.00
2019-01-15T09:01:08.907Z,2.27
2019-01-15T09:05:14.734Z,2.57
2019-01-15T09:09:20.411Z,2.00
2019-01-15T09:13:26.169Z,2.40
2019-01-15T09:17:31.902Z,2.00
2019-01-15T09:21:37.595Z,2.13
2019-01-15T09:25:43.291Z,2.13
2019-01-15T09:29:48.961Z,2.40
2019-01-15T09:33:54.705Z,1.80
2019-01-15T09:38:00.858Z,2.20
2019-01-15T09:42:06.612Z,2.30
2019-01-15T09:46:12.362Z,2.27
2019-01-15T09:50:19.559Z,2.10
2019-01-15T09:54:25.288Z,2.27
2019-01-15T09:58:31.088Z,2.20
2019-01-15T10:02:36.944Z,2.00
2019-01-15T10:06:42.624Z,2.20
2019-01-15T10:10:48.439Z,1.87
2019-01-15T10:14:54.193Z,2.20
2019-01-15T10:18:59.908Z,2.22
2019-01-15T10:23:05.837Z,1.97
2019-01-15T10:27:12.488Z,2.33
2019-01-15T10:31:58.820Z,2.10
2019-01-15T10:36:02.979Z,2.10
2019-01-15T10:40:08.764Z,2.10
2019-01-15T10:44:14.520Z,2.10
2019-01-15T10:48:20.317Z,2.20
2019-01-15T10:52:26.892Z,1.80
2019-01-15T10:56:51.060Z,1.60
2019-01-15T11:00:56.742Z,1.70
2019-01-15T11:05:50.317Z,1.63
2019-01-15T11:09:56.015Z,1.60
2019-01-15T11:14:56.118Z,1.70
2019-01-15T11:18:57.742Z,1.70
2019-01-15T11:23:51.230Z,1.80
2019-01-15T11:27:56.991Z,1.80
2019-01-15T11:37:36.240Z,1.53
2019-01-15T11:41:42.007Z,1.63
2019-01-15T11:45:47.789Z,1.70
2019-01-15T11:49:53.499Z,1.63
2019-01-15T11:53:59.183Z,1.53
2019-01-15T11:58:05.019Z,2.10
2019-01-15T12:02:12.359Z,1.80
2019-01-15T12:06:34.385Z,1.90
2019-01-15T12:10:42.551Z,1.90
2019-01-15T12:15:10.794Z,1.83
2019-01-15T12:19:15.492Z,1.70
2019-01-15T12:23:38.572Z,1.77
2019-01-15T12:27:50.034Z,1.50
2019-01-15T12:31:57.376Z,1.80
2019-01-15T12:36:13.664Z,1.87
2019-01-15T12:40:33.073Z,1.90
2019-01-15T12:44:46.125Z,2.30
2019-01-15T12:49:09.616Z,1.80
2019-01-15T12:53:26.762Z,1.90
2019-01-15T12:57:36.799Z,2.23
2019-01-15T13:01:50.051Z,2.13
2019-01-15T13:06:14.009Z,2.10
2019-01-15T13:10:37.171Z,1.72
2019-01-15T13:14:50.148Z,2.17
2019-01-15T13:18:58.565Z,2.72
2019-01-15T13:23:11.945Z,2.03
2019-01-15T13:27:25.138Z,2.00
2019-01-15T13:31:38.285Z,2.00
2019-01-15T13:36:00.735Z,2.13
2019-01-15T13:40:28.358Z,2.10
2019-01-15T13:44:50.557Z,2.40
2019-01-15T13:48:56.169Z,2.47
2019-01-15T13:53:18.426Z,9.05
2019-01-15T13:57:41.671Z,2.10
2019-01-15T14:01:49.892Z,2.20
2019-01-15T14:06:01.111Z,2.30
2019-01-15T14:10:16.339Z,1.80
2019-01-15T14:14:23.658Z,2.03
2019-01-15T14:18:36.920Z,2.17
2019-01-15T14:23:00.441Z,2.30
2019-01-15T14:27:10.523Z,2.23
2019-01-15T14:31:26.745Z,2.47
2019-01-15T14:35:50.265Z,1.90
2019-01-15T14:40:13.138Z,2.33
2019-01-15T14:44:38.540Z,2.13
2019-01-15T14:48:45.884Z,2.10
2019-01-15T14:52:51.335Z,2.13
2019-01-15T14:57:02.090Z,2.10
2019-01-15T15:01:25.533Z,2.20
2019-01-15T15:05:35.248Z,2.10
2019-01-15T15:09:45.302Z,2.40
2019-01-15T15:13:53.674Z,2.23
2019-01-15T15:18:06.823Z,2.50
2019-01-15T15:22:14.285Z,2.37
2019-01-15T15:26:21.630Z,2.13
2019-01-15T15:30:35.164Z,2.20
2019-01-15T15:34:58.380Z,2.50
2019-01-15T15:39:15.865Z,2.57
2019-01-15T15:43:23.190Z,2.40
2019-01-15T15:47:39.227Z,2.72
2019-01-15T15:52:04.449Z,2.20
2019-01-15T15:56:28.025Z,2.93
2019-01-15T16:00:35.359Z,2.30
2019-01-15T16:04:42.685Z,2.73
2019-01-15T16:09:05.917Z,2.47
2019-01-15T16:13:16.282Z,2.83
2019-01-15T16:17:39.895Z,2.87
2019-01-15T16:21:47.223Z,2.73
2019-01-15T16:25:57.564Z,2.90
2019-01-15T16:30:11.705Z,3.13
2019-01-15T16:34:22.952Z,2.70
2019-01-15T16:38:31.377Z,2.90
2019-01-15T16:42:54.403Z,2.67
2019-01-15T16:47:07.336Z,2.83
2019-01-15T16:51:30.938Z,3.10
2019-01-15T16:55:55.824Z,2.43
2019-01-15T17:00:18.305Z,2.50
2019-01-15T17:04:41.496Z,3.27
2019-01-15T17:09:03.703Z,2.97
2019-01-15T17:13:23.942Z,2.87
2019-01-15T17:17:41.119Z,2.97
2019-01-15T17:21:57.477Z,2.72
2019-01-15T17:26:07.447Z,3.50
2019-01-15T17:30:19.876Z,3.15
2019-01-15T17:34:27.276Z,3.20
2019-01-15T17:38:46.765Z,2.80
2019-01-15T17:42:56.785Z,3.37
2019-01-15T17:47:15.697Z,3.30
2019-01-15T17:51:29.135Z,3.00
2019-01-15T17:55:45.192Z,3.00
2019-01-15T17:59:58.454Z,3.23
2019-01-15T18:04:18.010Z,3.60
2019-01-15T18:08:32.389Z,3.40
2019-01-15T18:12:39.752Z,3.90
2019-01-15T18:17:01.935Z,3.40
2019-01-15T18:21:07.392Z,3.33
2019-01-15T18:25:17.836Z,3.40
2019-01-15T18:29:36.920Z,3.73
2019-01-15T18:33:51.173Z,4.50
2019-01-15T18:38:16.830Z,3.60
2019-01-15T18:42:26.950Z,3.67
2019-01-15T18:46:37.134Z,3.90
2019-01-15T18:50:56.566Z,4.27
2019-01-15T18:55:12.959Z,3.70
2019-01-15T18:59:20.329Z,4.23
2019-01-15T19:03:27.662Z,4.17
2019-01-15T19:07:37.408Z,3.80
2019-01-15T19:11:56.787Z,3.47
2019-01-15T19:16:21.901Z,3.50
2019-01-15T19:20:37.904Z,4.00
2019-01-15T19:24:48.837Z,4.00
2019-01-15T19:28:56.232Z,3.50
2019-01-15T19:33:12.067Z,3.90
2019-01-15T19:37:19.377Z,3.47
2019-01-15T19:41:32.270Z,3.60
2019-01-15T19:45:46.888Z,3.70
2019-01-15T19:50:00.252Z,3.50
2019-01-15T19:54:23.519Z,3.70
2019-01-15T19:58:43.302Z,3.40
2019-01-15T20:02:57.627Z,3.40
2019-01-15T20:07:10.898Z,3.90
2019-01-15T20:11:19.017Z,3.37
2019-01-15T20:15:47.058Z,3.52
2019-01-15T20:20:10.247Z,3.90
2019-01-15T20:24:33.527Z,3.30
2019-01-15T20:28:40.880Z,3.70
2019-01-15T20:32:48.204Z,3.80
2019-01-15T20:36:55.640Z,3.02
2019-01-15T20:41:06.845Z,3.20
2019-01-15T20:45:53.558Z,3.00
2019-01-15T20:50:03.743Z,2.67
2019-01-15T20:54:13.856Z,3.00
2019-01-15T20:58:55.711Z,3.50
2019-01-15T21:03:19.011Z,2.93
2019-01-15T21:07:32.123Z,2.80
2019-01-15T21:12:10.919Z,2.87
2019-01-15T21:16:22.003Z,3.83
2019-01-15T21:20:45.139Z,2.67
2019-01-15T21:24:52.537Z,3.23
2019-01-15T21:29:15.092Z,3.30
2019-01-15T21:33:28.369Z,3.43
2019-01-15T21:37:33.844Z,3.07
2019-01-15T21:41:41.167Z,2.90
2019-01-15T21:45:50.946Z,3.27
2019-01-15T21:50:00.992Z,2.60
2019-01-15T21:54:08.382Z,3.00
2019-01-15T21:58:15.712Z,2.80
2019-01-15T22:02:38.223Z,2.53
2019-01-15T22:06:48.087Z,2.80
2019-01-15T22:10:58.154Z,2.58
2019-01-15T22:20:01.079Z,2.17
2019-01-15T22:24:24.219Z,2.23
2019-01-15T22:28:34.541Z,2.20
2019-01-15T22:32:44.548Z,2.37
2019-01-15T22:36:51.877Z,1.93
2019-01-15T22:40:59.196Z,1.73
2019-01-15T22:45:09.904Z,2.20
2019-01-15T22:49:33.201Z,2.30
2019-01-15T22:53:44.287Z,2.47
2019-01-15T22:58:03.213Z,2.50
2019-01-15T23:02:16.548Z,2.40
2019-01-15T23:06:25.865Z,2.37
2019-01-15T23:10:42.342Z,2.70
2019-01-15T23:14:49.720Z,2.57
2019-01-15T23:19:02.982Z,3.03
2019-01-15T23:23:09.022Z,2.67
2019-01-15T23:27:19.090Z,2.77
2019-01-15T23:31:26.968Z,3.43
2019-01-15T23:35:47.329Z,2.80
2019-01-15T23:39:57.351Z,3.10
2019-01-15T23:44:10.099Z,2.30
2019-01-15T23:48:33.497Z,2.60
2019-01-15T23:52:43.587Z,3.62
2019-01-15T23:56:56.876Z,2.97
